sensor_id;sensor_type;location;lat;lon;timestamp;P1;durP1;ratioP1;P2;durP2;ratioP2
17727;SDS011;8984;49.268;12.302;2024-02-26T00:02:11;6.00;;;4.93;;
17727;SDS011;8984;49.268;12.302;2024-02-26T00:04:46;8.53;;;5.83;;
17727;SDS011;8984;49.268;12.302;2024-02-26T00:07:14;7.63;;;5.40;;
17727;SDS011;8984;49.268;12.302;2024-02-26T00:09:55;6.97;;;5.23;;
17727;SDS011;8984;49.268;12.302;2024-02-26T00:12:37;6.80;;;5.30;;
17727;SDS011;8984;49.268;12.302;2024-02-26T00:18:10;9.03;;;5.30;;
17727;SDS011;8984;49.268;12.302;2024-02-26T00:20:52;6.43;;;5.10;;
17727;SDS011;8984;49.268;12.302;2024-02-26T00:23:47;6.90;;;5.47;;
17727;SDS011;8984;49.268;12.302;2024-02-26T00:26:18;6.63;;;5.30;;
17727;SDS011;8984;49.268;12.302;2024-02-26T00:28:54;5.77;;;5.17;;
17727;SDS011;8984;49.268;12.302;2024-02-26T00:31:34;7.13;;;4.83;;
17727;SDS011;8984;49.268;12.302;2024-02-26T00:36:55;5.73;;;4.93;;
17727;SDS011;8984;49.268;12.302;2024-02-26T00:39:24;6.00;;;4.63;;
17727;SDS011;8984;49.268;12.302;2024-02-26T00:41:55;6.93;;;5.60;;
17727;SDS011;8984;49.268;12.302;2024-02-26T00:44:26;9.57;;;5.33;;
17727;SDS011;8984;49.268;12.302;2024-02-26T00:46:58;6.27;;;5.03;;
17727;SDS011;8984;49.268;12.302;2024-02-26T00:49:33;5.73;;;4.90;;
17727;SDS011;8984;49.268;12.302;2024-02-26T00:52:15;5.83;;;4.93;;
17727;SDS011;8984;49.268;12.302;2024-02-26T00:54:45;7.17;;;5.10;;
17727;SDS011;8984;49.268;12.302;2024-02-26T00:57:14;7.80;;;5.43;;
17727;SDS011;8984;49.268;12.302;2024-02-26T00:59:50;8.53;;;5.13;;
17727;SDS011;8984;49.268;12.302;2024-02-26T01:02:21;8.90;;;6.03;;
17727;SDS011;8984;49.268;12.302;2024-02-26T01:04:55;7.47;;;5.33;;
17727;SDS011;8984;49.268;12.302;2024-02-26T01:07:31;9.40;;;6.03;;
17727;SDS011;8984;49.268;12.302;2024-02-26T01:10:03;7.27;;;5.67;;
17727;SDS011;8984;49.268;12.302;2024-02-26T01:12:38;6.77;;;5.30;;
17727;SDS011;8984;49.268;12.302;2024-02-26T01:15:23;10.87;;;5.57;;
17727;SDS011;8984;49.268;12.302;2024-02-26T01:18:06;7.80;;;5.67;;
17727;SDS011;8984;49.268;12.302;2024-02-26T01:20:47;6.10;;;4.73;;
17727;SDS011;8984;49.268;12.302;2024-02-26T01:23:31;7.07;;;5.17;;
17727;SDS011;8984;49.268;12.302;2024-02-26T01:26:26;6.17;;;4.97;;
17727;SDS011;8984;49.268;12.302;2024-02-26T01:28:55;8.03;;;5.33;;
17727;SDS011;8984;49.268;12.302;2024-02-26T01:31:38;6.63;;;4.70;;
17727;SDS011;8984;49.268;12.302;2024-02-26T01:34:24;7.17;;;5.10;;
17727;SDS011;8984;49.268;12.302;2024-02-26T01:37:02;6.07;;;5.40;;
17727;SDS011;8984;49.268;12.302;2024-02-26T01:39:35;5.70;;;4.60;;
17727;SDS011;8984;49.268;12.302;2024-02-26T01:42:17;6.83;;;4.70;;
17727;SDS011;8984;49.268;12.302;2024-02-26T01:45:16;5.83;;;4.80;;
17727;SDS011;8984;49.268;12.302;2024-02-26T01:47:47;7.00;;;5.23;;
17727;SDS011;8984;49.268;12.302;2024-02-26T01:50:22;9.67;;;5.30;;
17727;SDS011;8984;49.268;12.302;2024-02-26T01:53:07;8.47;;;5.17;;
17727;SDS011;8984;49.268;12.302;2024-02-26T01:55:42;6.63;;;5.20;;
17727;SDS011;8984;49.268;12.302;2024-02-26T01:58:14;7.03;;;5.20;;
17727;SDS011;8984;49.268;12.302;2024-02-26T02:00:49;6.60;;;4.70;;
17727;SDS011;8984;49.268;12.302;2024-02-26T02:03:20;7.73;;;5.33;;
17727;SDS011;8984;49.268;12.302;2024-02-26T02:05:51;7.07;;;5.60;;
17727;SDS011;8984;49.268;12.302;2024-02-26T02:08:28;6.53;;;5.13;;
17727;SDS011;8984;49.268;12.302;2024-02-26T02:10:57;5.93;;;4.77;;
17727;SDS011;8984;49.268;12.302;2024-02-26T02:13:25;10.20;;;5.37;;
17727;SDS011;8984;49.268;12.302;2024-02-26T02:15:57;6.17;;;5.00;;
17727;SDS011;8984;49.268;12.302;2024-02-26T02:18:29;7.07;;;5.10;;
17727;SDS011;8984;49.268;12.302;2024-02-26T02:20:58;6.13;;;5.00;;
17727;SDS011;8984;49.268;12.302;2024-02-26T02:23:28;7.73;;;4.60;;
17727;SDS011;8984;49.268;12.302;2024-02-26T02:25:59;8.33;;;5.37;;
17727;SDS011;8984;49.268;12.302;2024-02-26T02:28:27;6.97;;;5.63;;
17727;SDS011;8984;49.268;12.302;2024-02-26T02:30:59;7.63;;;5.20;;
17727;SDS011;8984;49.268;12.302;2024-02-26T02:33:26;7.00;;;5.30;;
17727;SDS011;8984;49.268;12.302;2024-02-26T02:35:55;8.80;;;5.17;;
17727;SDS011;8984;49.268;12.302;2024-02-26T02:38:29;7.67;;;5.50;;
17727;SDS011;8984;49.268;12.302;2024-02-26T02:40:57;8.57;;;5.70;;
17727;SDS011;8984;49.268;12.302;2024-02-26T02:43:25;6.37;;;4.90;;
17727;SDS011;8984;49.268;12.302;2024-02-26T02:46:13;7.47;;;5.60;;
17727;SDS011;8984;49.268;12.302;2024-02-26T02:48:44;6.97;;;5.27;;
17727;SDS011;8984;49.268;12.302;2024-02-26T02:51:14;6.33;;;4.90;;
17727;SDS011;8984;49.268;12.302;2024-02-26T02:53:42;7.43;;;5.27;;
17727;SDS011;8984;49.268;12.302;2024-02-26T02:56:10;6.83;;;5.57;;
17727;SDS011;8984;49.268;12.302;2024-02-26T02:58:38;8.60;;;5.83;;
17727;SDS011;8984;49.268;12.302;2024-02-26T03:01:09;7.30;;;5.20;;
17727;SDS011;8984;49.268;12.302;2024-02-26T03:03:44;7.27;;;5.40;;
17727;SDS011;8984;49.268;12.302;2024-02-26T03:06:16;6.10;;;5.00;;
17727;SDS011;8984;49.268;12.302;2024-02-26T03:08:46;7.90;;;5.60;;
17727;SDS011;8984;49.268;12.302;2024-02-26T03:11:16;7.80;;;4.93;;
17727;SDS011;8984;49.268;12.302;2024-02-26T03:13:52;5.73;;;5.13;;
17727;SDS011;8984;49.268;12.302;2024-02-26T03:16:35;9.17;;;6.73;;
17727;SDS011;8984;49.268;12.302;2024-02-26T03:19:03;8.17;;;5.43;;
17727;SDS011;8984;49.268;12.302;2024-02-26T03:21:32;7.90;;;5.80;;
17727;SDS011;8984;49.268;12.302;2024-02-26T03:24:01;10.67;;;5.67;;
17727;SDS011;8984;49.268;12.302;2024-02-26T03:26:31;8.60;;;6.80;;
17727;SDS011;8984;49.268;12.302;2024-02-26T03:29:00;7.93;;;5.97;;
17727;SDS011;8984;49.268;12.302;2024-02-26T03:31:51;7.30;;;5.70;;
17727;SDS011;8984;49.268;12.302;2024-02-26T03:34:28;9.90;;;5.73;;
17727;SDS011;8984;49.268;12.302;2024-02-26T03:36:58;5.97;;;5.27;;
17727;SDS011;8984;49.268;12.302;2024-02-26T03:39:26;10.67;;;5.80;;
17727;SDS011;8984;49.268;12.302;2024-02-26T03:41:57;7.20;;;5.53;;
17727;SDS011;8984;49.268;12.302;2024-02-26T03:44:29;9.70;;;5.87;;
17727;SDS011;8984;49.268;12.302;2024-02-26T03:46:58;6.80;;;6.10;;
17727;SDS011;8984;49.268;12.302;2024-02-26T03:49:53;8.33;;;7.07;;
17727;SDS011;8984;49.268;12.302;2024-02-26T03:52:21;8.20;;;7.23;;
17727;SDS011;8984;49.268;12.302;2024-02-26T03:54:48;9.73;;;5.90;;
17727;SDS011;8984;49.268;12.302;2024-02-26T03:57:15;9.17;;;6.57;;
17727;SDS011;8984;49.268;12.302;2024-02-26T03:59:41;7.97;;;6.37;;
17727;SDS011;8984;49.268;12.302;2024-02-26T04:02:08;9.07;;;6.23;;
17727;SDS011;8984;49.268;12.302;2024-02-26T04:04:35;8.60;;;5.73;;
17727;SDS011;8984;49.268;12.302;2024-02-26T04:07:03;9.40;;;6.47;;
17727;SDS011;8984;49.268;12.302;2024-02-26T04:09:30;12.70;;;6.27;;
17727;SDS011;8984;49.268;12.302;2024-02-26T04:11:57;10.30;;;6.30;;
17727;SDS011;8984;49.268;12.302;2024-02-26T04:14:24;7.87;;;6.13;;
17727;SDS011;8984;49.268;12.302;2024-02-26T04:16:51;9.90;;;6.30;;
17727;SDS011;8984;49.268;12.302;2024-02-26T04:19:19;8.73;;;6.40;;
17727;SDS011;8984;49.268;12.302;2024-02-26T04:21:46;11.23;;;6.60;;
17727;SDS011;8984;49.268;12.302;2024-02-26T04:24:14;11.00;;;7.53;;
17727;SDS011;8984;49.268;12.302;2024-02-26T04:26:41;7.90;;;5.80;;
17727;SDS011;8984;49.268;12.302;2024-02-26T04:29:08;9.60;;;6.20;;
17727;SDS011;8984;49.268;12.302;2024-02-26T04:31:35;9.13;;;6.13;;
17727;SDS011;8984;49.268;12.302;2024-02-26T04:34:04;8.10;;;6.00;;
17727;SDS011;8984;49.268;12.302;2024-02-26T04:36:31;10.47;;;6.63;;
17727;SDS011;8984;49.268;12.302;2024-02-26T04:38:58;8.73;;;6.23;;
17727;SDS011;8984;49.268;12.302;2024-02-26T04:41:26;7.77;;;6.07;;
17727;SDS011;8984;49.268;12.302;2024-02-26T04:43:53;7.70;;;5.20;;
17727;SDS011;8984;49.268;12.302;2024-02-26T04:46:20;8.93;;;5.90;;
17727;SDS011;8984;49.268;12.302;2024-02-26T04:48:47;8.50;;;6.50;;
17727;SDS011;8984;49.268;12.302;2024-02-26T04:51:14;9.03;;;6.00;;
17727;SDS011;8984;49.268;12.302;2024-02-26T04:53:41;9.53;;;6.60;;
17727;SDS011;8984;49.268;12.302;2024-02-26T04:56:07;10.97;;;8.37;;
17727;SDS011;8984;49.268;12.302;2024-02-26T04:58:35;36.23;;;19.70;;
17727;SDS011;8984;49.268;12.302;2024-02-26T05:01:03;17.97;;;11.90;;
17727;SDS011;8984;49.268;12.302;2024-02-26T05:03:30;11.73;;;7.23;;
17727;SDS011;8984;49.268;12.302;2024-02-26T05:05:56;10.93;;;6.77;;
17727;SDS011;8984;49.268;12.302;2024-02-26T05:08:23;12.87;;;7.70;;
17727;SDS011;8984;49.268;12.302;2024-02-26T05:10:50;11.50;;;8.20;;
17727;SDS011;8984;49.268;12.302;2024-02-26T05:13:17;11.37;;;7.90;;
17727;SDS011;8984;49.268;12.302;2024-02-26T05:15:45;11.63;;;8.17;;
17727;SDS011;8984;49.268;12.302;2024-02-26T05:18:14;9.83;;;7.13;;
17727;SDS011;8984;49.268;12.302;2024-02-26T05:20:41;8.93;;;6.60;;
17727;SDS011;8984;49.268;12.302;2024-02-26T05:23:07;9.80;;;6.90;;
17727;SDS011;8984;49.268;12.302;2024-02-26T05:25:35;9.60;;;7.13;;
17727;SDS011;8984;49.268;12.302;2024-02-26T05:28:02;10.23;;;7.23;;
17727;SDS011;8984;49.268;12.302;2024-02-26T05:30:29;9.73;;;6.80;;
17727;SDS011;8984;49.268;12.302;2024-02-26T05:32:57;10.50;;;6.60;;
17727;SDS011;8984;49.268;12.302;2024-02-26T05:35:24;12.10;;;6.60;;
17727;SDS011;8984;49.268;12.302;2024-02-26T05:37:51;9.60;;;7.30;;
17727;SDS011;8984;49.268;12.302;2024-02-26T05:40:19;10.80;;;7.50;;
17727;SDS011;8984;49.268;12.302;2024-02-26T05:42:45;10.17;;;6.77;;
17727;SDS011;8984;49.268;12.302;2024-02-26T05:45:14;9.17;;;6.97;;
17727;SDS011;8984;49.268;12.302;2024-02-26T05:47:41;12.93;;;7.53;;
17727;SDS011;8984;49.268;12.302;2024-02-26T05:50:10;9.00;;;6.90;;
17727;SDS011;8984;49.268;12.302;2024-02-26T05:52:37;10.23;;;7.33;;
17727;SDS011;8984;49.268;12.302;2024-02-26T05:55:05;11.53;;;8.30;;
17727;SDS011;8984;49.268;12.302;2024-02-26T05:57:33;12.07;;;8.00;;
17727;SDS011;8984;49.268;12.302;2024-02-26T06:00:00;10.27;;;7.50;;
17727;SDS011;8984;49.268;12.302;2024-02-26T06:02:29;8.57;;;7.07;;
17727;SDS011;8984;49.268;12.302;2024-02-26T06:04:56;11.50;;;8.27;;
17727;SDS011;8984;49.268;12.302;2024-02-26T06:07:24;11.53;;;8.37;;
17727;SDS011;8984;49.268;12.302;2024-02-26T06:09:51;13.83;;;8.43;;
17727;SDS011;8984;49.268;12.302;2024-02-26T06:12:17;14.23;;;9.93;;
17727;SDS011;8984;49.268;12.302;2024-02-26T06:14:44;17.00;;;11.17;;
17727;SDS011;8984;49.268;12.302;2024-02-26T06:17:11;16.87;;;11.53;;
17727;SDS011;8984;49.268;12.302;2024-02-26T06:19:38;19.43;;;13.00;;
17727;SDS011;8984;49.268;12.302;2024-02-26T06:22:04;18.77;;;11.83;;
17727;SDS011;8984;49.268;12.302;2024-02-26T06:24:32;17.63;;;11.80;;
17727;SDS011;8984;49.268;12.302;2024-02-26T06:26:59;14.70;;;10.60;;
17727;SDS011;8984;49.268;12.302;2024-02-26T06:29:26;18.00;;;11.20;;
17727;SDS011;8984;49.268;12.302;2024-02-26T06:31:53;17.83;;;12.63;;
17727;SDS011;8984;49.268;12.302;2024-02-26T06:34:20;17.77;;;11.67;;
17727;SDS011;8984;49.268;12.302;2024-02-26T06:36:47;23.53;;;13.60;;
17727;SDS011;8984;49.268;12.302;2024-02-26T06:39:14;20.40;;;13.03;;
17727;SDS011;8984;49.268;12.302;2024-02-26T06:41:42;18.90;;;12.90;;
17727;SDS011;8984;49.268;12.302;2024-02-26T06:44:11;22.47;;;13.33;;
17727;SDS011;8984;49.268;12.302;2024-02-26T06:46:39;18.77;;;13.40;;
17727;SDS011;8984;49.268;12.302;2024-02-26T06:49:06;18.33;;;12.90;;
17727;SDS011;8984;49.268;12.302;2024-02-26T06:51:32;21.47;;;14.03;;
17727;SDS011;8984;49.268;12.302;2024-02-26T06:53:59;18.53;;;12.63;;
17727;SDS011;8984;49.268;12.302;2024-02-26T06:56:26;17.67;;;11.90;;
17727;SDS011;8984;49.268;12.302;2024-02-26T06:58:54;17.20;;;12.00;;
17727;SDS011;8984;49.268;12.302;2024-02-26T07:01:21;16.60;;;11.77;;
17727;SDS011;8984;49.268;12.302;2024-02-26T07:03:48;19.53;;;13.77;;
17727;SDS011;8984;49.268;12.302;2024-02-26T07:06:15;19.60;;;13.63;;
17727;SDS011;8984;49.268;12.302;2024-02-26T07:08:41;19.77;;;13.23;;
17727;SDS011;8984;49.268;12.302;2024-02-26T07:11:08;20.10;;;13.40;;
17727;SDS011;8984;49.268;12.302;2024-02-26T07:13:36;19.67;;;13.73;;
17727;SDS011;8984;49.268;12.302;2024-02-26T07:16:05;20.33;;;14.63;;
17727;SDS011;8984;49.268;12.302;2024-02-26T07:18:32;21.57;;;14.07;;
17727;SDS011;8984;49.268;12.302;2024-02-26T07:21:01;22.80;;;14.70;;
17727;SDS011;8984;49.268;12.302;2024-02-26T07:23:28;18.60;;;13.40;;
17727;SDS011;8984;49.268;12.302;2024-02-26T07:25:55;21.93;;;14.20;;
17727;SDS011;8984;49.268;12.302;2024-02-26T07:28:22;26.07;;;17.03;;
17727;SDS011;8984;49.268;12.302;2024-02-26T07:30:49;26.57;;;15.83;;
17727;SDS011;8984;49.268;12.302;2024-02-26T07:33:17;21.00;;;13.33;;
17727;SDS011;8984;49.268;12.302;2024-02-26T07:35:44;23.70;;;15.20;;
17727;SDS011;8984;49.268;12.302;2024-02-26T07:38:10;23.57;;;15.57;;
17727;SDS011;8984;49.268;12.302;2024-02-26T07:40:38;23.03;;;15.00;;
17727;SDS011;8984;49.268;12.302;2024-02-26T07:43:05;21.73;;;13.87;;
17727;SDS011;8984;49.268;12.302;2024-02-26T07:45:32;19.53;;;13.53;;
17727;SDS011;8984;49.268;12.302;2024-02-26T07:48:01;40.90;;;26.10;;
17727;SDS011;8984;49.268;12.302;2024-02-26T07:50:29;30.40;;;20.40;;
17727;SDS011;8984;49.268;12.302;2024-02-26T07:52:56;19.43;;;13.13;;
17727;SDS011;8984;49.268;12.302;2024-02-26T07:55:23;22.30;;;15.43;;
17727;SDS011;8984;49.268;12.302;2024-02-26T07:57:50;21.40;;;14.83;;
17727;SDS011;8984;49.268;12.302;2024-02-26T08:00:17;26.40;;;17.10;;
17727;SDS011;8984;49.268;12.302;2024-02-26T08:02:45;23.30;;;16.63;;
17727;SDS011;8984;49.268;12.302;2024-02-26T08:05:12;22.23;;;14.30;;
17727;SDS011;8984;49.268;12.302;2024-02-26T08:07:40;20.30;;;13.10;;
17727;SDS011;8984;49.268;12.302;2024-02-26T08:10:08;18.67;;;12.80;;
17727;SDS011;8984;49.268;12.302;2024-02-26T08:12:35;19.37;;;12.87;;
17727;SDS011;8984;49.268;12.302;2024-02-26T08:15:02;19.23;;;13.47;;
17727;SDS011;8984;49.268;12.302;2024-02-26T08:17:30;21.67;;;15.67;;
17727;SDS011;8984;49.268;12.302;2024-02-26T08:19:58;18.17;;;12.93;;
17727;SDS011;8984;49.268;12.302;2024-02-26T08:22:24;18.93;;;12.63;;
17727;SDS011;8984;49.268;12.302;2024-02-26T08:24:52;18.73;;;13.50;;
17727;SDS011;8984;49.268;12.302;2024-02-26T08:27:19;18.93;;;13.13;;
17727;SDS011;8984;49.268;12.302;2024-02-26T08:29:46;17.93;;;12.37;;
17727;SDS011;8984;49.268;12.302;2024-02-26T08:32:13;17.73;;;11.77;;
17727;SDS011;8984;49.268;12.302;2024-02-26T08:34:40;15.83;;;11.17;;
17727;SDS011;8984;49.268;12.302;2024-02-26T08:37:06;15.33;;;10.43;;
17727;SDS011;8984;49.268;12.302;2024-02-26T08:39:33;17.90;;;12.80;;
17727;SDS011;8984;49.268;12.302;2024-02-26T08:42:02;18.17;;;12.43;;
17727;SDS011;8984;49.268;12.302;2024-02-26T08:44:29;15.83;;;11.17;;
17727;SDS011;8984;49.268;12.302;2024-02-26T08:46:55;14.67;;;10.70;;
17727;SDS011;8984;49.268;12.302;2024-02-26T08:49:23;15.07;;;10.17;;
17727;SDS011;8984;49.268;12.302;2024-02-26T08:51:50;15.23;;;11.40;;
17727;SDS011;8984;49.268;12.302;2024-02-26T08:54:17;14.77;;;10.80;;
17727;SDS011;8984;49.268;12.302;2024-02-26T08:56:43;15.37;;;11.30;;
17727;SDS011;8984;49.268;12.302;2024-02-26T08:59:12;16.10;;;11.07;;
17727;SDS011;8984;49.268;12.302;2024-02-26T09:01:41;14.27;;;10.70;;
17727;SDS011;8984;49.268;12.302;2024-02-26T09:04:08;13.70;;;9.67;;
17727;SDS011;8984;49.268;12.302;2024-02-26T09:06:34;14.30;;;10.83;;
17727;SDS011;8984;49.268;12.302;2024-02-26T09:09:01;14.00;;;9.53;;
17727;SDS011;8984;49.268;12.302;2024-02-26T09:11:28;13.70;;;10.03;;
17727;SDS011;8984;49.268;12.302;2024-02-26T09:13:56;13.03;;;9.90;;
17727;SDS011;8984;49.268;12.302;2024-02-26T09:16:24;16.33;;;11.67;;
17727;SDS011;8984;49.268;12.302;2024-02-26T09:18:51;15.23;;;10.80;;
17727;SDS011;8984;49.268;12.302;2024-02-26T09:21:17;15.33;;;11.10;;
17727;SDS011;8984;49.268;12.302;2024-02-26T09:23:48;14.47;;;9.97;;
17727;SDS011;8984;49.268;12.302;2024-02-26T09:26:14;14.17;;;9.60;;
17727;SDS011;8984;49.268;12.302;2024-02-26T09:28:41;13.20;;;9.73;;
17727;SDS011;8984;49.268;12.302;2024-02-26T09:31:08;13.07;;;9.27;;
17727;SDS011;8984;49.268;12.302;2024-02-26T09:33:36;12.33;;;8.63;;
17727;SDS011;8984;49.268;12.302;2024-02-26T09:36:03;12.10;;;9.03;;
17727;SDS011;8984;49.268;12.302;2024-02-26T09:38:31;11.10;;;8.50;;
17727;SDS011;8984;49.268;12.302;2024-02-26T09:41:02;11.97;;;8.90;;
17727;SDS011;8984;49.268;12.302;2024-02-26T09:43:31;12.27;;;8.77;;
17727;SDS011;8984;49.268;12.302;2024-02-26T09:46:01;13.13;;;9.03;;
17727;SDS011;8984;49.268;12.302;2024-02-26T09:48:28;12.80;;;8.37;;
17727;SDS011;8984;49.268;12.302;2024-02-26T09:50:57;12.07;;;8.30;;
17727;SDS011;8984;49.268;12.302;2024-02-26T09:53:24;10.87;;;8.77;;
17727;SDS011;8984;49.268;12.302;2024-02-26T09:55:53;10.43;;;8.10;;
17727;SDS011;8984;49.268;12.302;2024-02-26T09:58:20;10.07;;;7.93;;
17727;SDS011;8984;49.268;12.302;2024-02-26T10:00:49;10.30;;;7.47;;
17727;SDS011;8984;49.268;12.302;2024-02-26T10:03:23;10.37;;;8.03;;
17727;SDS011;8984;49.268;12.302;2024-02-26T10:05:54;10.03;;;7.80;;
17727;SDS011;8984;49.268;12.302;2024-02-26T10:08:24;10.60;;;7.90;;
17727;SDS011;8984;49.268;12.302;2024-02-26T10:10:53;28.53;;;18.03;;
17727;SDS011;8984;49.268;12.302;2024-02-26T10:13:21;8.87;;;7.33;;
17727;SDS011;8984;49.268;12.302;2024-02-26T10:15:48;11.37;;;8.80;;
17727;SDS011;8984;49.268;12.302;2024-02-26T10:18:15;8.47;;;6.83;;
17727;SDS011;8984;49.268;12.302;2024-02-26T10:20:42;9.43;;;7.17;;
17727;SDS011;8984;49.268;12.302;2024-02-26T10:23:08;10.33;;;7.30;;
17727;SDS011;8984;49.268;12.302;2024-02-26T10:25:37;10.43;;;7.67;;
17727;SDS011;8984;49.268;12.302;2024-02-26T10:28:18;9.63;;;7.13;;
17727;SDS011;8984;49.268;12.302;2024-02-26T10:30:45;11.93;;;8.13;;
17727;SDS011;8984;49.268;12.302;2024-02-26T10:33:12;9.77;;;7.43;;
17727;SDS011;8984;49.268;12.302;2024-02-26T10:35:39;9.13;;;6.90;;
17727;SDS011;8984;49.268;12.302;2024-02-26T10:38:06;10.33;;;7.07;;
17727;SDS011;8984;49.268;12.302;2024-02-26T10:40:33;8.67;;;6.80;;
17727;SDS011;8984;49.268;12.302;2024-02-26T10:43:02;8.97;;;7.37;;
17727;SDS011;8984;49.268;12.302;2024-02-26T10:45:28;8.43;;;6.80;;
17727;SDS011;8984;49.268;12.302;2024-02-26T10:47:55;10.07;;;7.50;;
17727;SDS011;8984;49.268;12.302;2024-02-26T10:50:22;8.47;;;7.00;;
17727;SDS011;8984;49.268;12.302;2024-02-26T10:52:50;8.60;;;6.30;;
17727;SDS011;8984;49.268;12.302;2024-02-26T10:55:17;10.27;;;7.47;;
17727;SDS011;8984;49.268;12.302;2024-02-26T10:57:47;9.17;;;7.10;;
17727;SDS011;8984;49.268;12.302;2024-02-26T11:00:20;8.23;;;6.77;;
17727;SDS011;8984;49.268;12.302;2024-02-26T11:02:46;8.03;;;6.70;;
17727;SDS011;8984;49.268;12.302;2024-02-26T11:05:15;9.43;;;6.90;;
17727;SDS011;8984;49.268;12.302;2024-02-26T11:07:43;10.23;;;7.20;;
17727;SDS011;8984;49.268;12.302;2024-02-26T11:10:12;9.07;;;6.90;;
17727;SDS011;8984;49.268;12.302;2024-02-26T11:12:39;7.90;;;6.17;;
17727;SDS011;8984;49.268;12.302;2024-02-26T11:15:09;7.20;;;5.33;;
17727;SDS011;8984;49.268;12.302;2024-02-26T11:20:38;7.87;;;6.20;;
17727;SDS011;8984;49.268;12.302;2024-02-26T11:23:08;7.20;;;5.50;;
17727;SDS011;8984;49.268;12.302;2024-02-26T11:25:49;8.30;;;6.30;;
17727;SDS011;8984;49.268;12.302;2024-02-26T11:28:20;7.10;;;5.60;;
17727;SDS011;8984;49.268;12.302;2024-02-26T11:31:03;8.10;;;6.30;;
17727;SDS011;8984;49.268;12.302;2024-02-26T11:36:24;7.13;;;6.00;;
17727;SDS011;8984;49.268;12.302;2024-02-26T11:39:11;9.43;;;6.63;;
17727;SDS011;8984;49.268;12.302;2024-02-26T11:41:54;8.67;;;6.37;;
17727;SDS011;8984;49.268;12.302;2024-02-26T11:44:45;8.03;;;6.20;;
17727;SDS011;8984;49.268;12.302;2024-02-26T11:47:21;8.63;;;6.30;;
17727;SDS011;8984;49.268;12.302;2024-02-26T11:56:25;7.57;;;6.10;;
17727;SDS011;8984;49.268;12.302;2024-02-26T11:59:04;8.20;;;6.00;;
17727;SDS011;8984;49.268;12.302;2024-02-26T12:01:41;7.70;;;6.23;;
17727;SDS011;8984;49.268;12.302;2024-02-26T12:04:13;9.17;;;6.77;;
17727;SDS011;8984;49.268;12.302;2024-02-26T12:06:46;9.60;;;7.67;;
17727;SDS011;8984;49.268;12.302;2024-02-26T12:09:40;9.83;;;6.33;;
17727;SDS011;8984;49.268;12.302;2024-02-26T12:12:17;9.30;;;7.10;;
17727;SDS011;8984;49.268;12.302;2024-02-26T12:14:50;9.17;;;6.70;;
17727;SDS011;8984;49.268;12.302;2024-02-26T12:17:29;9.17;;;7.13;;
17727;SDS011;8984;49.268;12.302;2024-02-26T12:20:08;7.83;;;6.07;;
17727;SDS011;8984;49.268;12.302;2024-02-26T12:22:44;7.70;;;6.50;;
17727;SDS011;8984;49.268;12.302;2024-02-26T12:25:13;9.83;;;7.30;;
17727;SDS011;8984;49.268;12.302;2024-02-26T12:27:45;7.73;;;6.10;;
17727;SDS011;8984;49.268;12.302;2024-02-26T12:30:19;9.60;;;7.17;;
17727;SDS011;8984;49.268;12.302;2024-02-26T12:33:01;8.70;;;7.13;;
17727;SDS011;8984;49.268;12.302;2024-02-26T12:35:29;11.03;;;8.53;;
17727;SDS011;8984;49.268;12.302;2024-02-26T12:37:58;8.03;;;7.03;;
17727;SDS011;8984;49.268;12.302;2024-02-26T12:40:30;10.00;;;7.07;;
17727;SDS011;8984;49.268;12.302;2024-02-26T12:43:07;11.13;;;7.87;;
17727;SDS011;8984;49.268;12.302;2024-02-26T12:45:38;9.97;;;7.27;;
17727;SDS011;8984;49.268;12.302;2024-02-26T12:48:06;10.73;;;8.47;;
17727;SDS011;8984;49.268;12.302;2024-02-26T12:50:37;10.57;;;8.70;;
17727;SDS011;8984;49.268;12.302;2024-02-26T12:53:11;10.53;;;8.70;;
17727;SDS011;8984;49.268;12.302;2024-02-26T12:55:39;9.93;;;7.70;;
17727;SDS011;8984;49.268;12.302;2024-02-26T12:58:19;13.70;;;10.43;;
17727;SDS011;8984;49.268;12.302;2024-02-26T13:01:14;9.17;;;7.07;;
17727;SDS011;8984;49.268;12.302;2024-02-26T13:03:45;9.80;;;7.50;;
17727;SDS011;8984;49.268;12.302;2024-02-26T13:06:15;11.00;;;7.83;;
17727;SDS011;8984;49.268;12.302;2024-02-26T13:08:46;13.37;;;9.43;;
17727;SDS011;8984;49.268;12.302;2024-02-26T13:11:15;11.53;;;8.23;;
17727;SDS011;8984;49.268;12.302;2024-02-26T13:13:47;10.43;;;8.00;;
17727;SDS011;8984;49.268;12.302;2024-02-26T13:16:16;9.47;;;7.40;;
17727;SDS011;8984;49.268;12.302;2024-02-26T13:18:45;8.87;;;6.87;;
17727;SDS011;8984;49.268;12.302;2024-02-26T13:21:23;8.73;;;7.00;;
17727;SDS011;8984;49.268;12.302;2024-02-26T13:23:53;12.20;;;8.07;;
17727;SDS011;8984;49.268;12.302;2024-02-26T13:26:25;13.93;;;10.07;;
17727;SDS011;8984;49.268;12.302;2024-02-26T13:29:05;10.57;;;7.67;;
17727;SDS011;8984;49.268;12.302;2024-02-26T13:31:41;9.93;;;7.57;;
17727;SDS011;8984;49.268;12.302;2024-02-26T13:34:10;12.03;;;8.00;;
17727;SDS011;8984;49.268;12.302;2024-02-26T13:36:54;9.33;;;7.50;;
17727;SDS011;8984;49.268;12.302;2024-02-26T13:42:14;10.93;;;7.57;;
17727;SDS011;8984;49.268;12.302;2024-02-26T13:44:47;9.23;;;7.07;;
17727;SDS011;8984;49.268;12.302;2024-02-26T13:47:21;9.87;;;7.93;;
17727;SDS011;8984;49.268;12.302;2024-02-26T13:49:52;10.00;;;7.87;;
17727;SDS011;8984;49.268;12.302;2024-02-26T13:52:27;10.50;;;7.77;;
17727;SDS011;8984;49.268;12.302;2024-02-26T13:55:00;10.83;;;7.47;;
17727;SDS011;8984;49.268;12.302;2024-02-26T13:57:30;9.43;;;7.40;;
17727;SDS011;8984;49.268;12.302;2024-02-26T14:00:05;9.93;;;8.10;;
17727;SDS011;8984;49.268;12.302;2024-02-26T14:02:37;10.17;;;7.63;;
17727;SDS011;8984;49.268;12.302;2024-02-26T14:05:21;9.20;;;7.37;;
17727;SDS011;8984;49.268;12.302;2024-02-26T14:07:50;9.63;;;6.67;;
17727;SDS011;8984;49.268;12.302;2024-02-26T14:10:20;9.07;;;6.73;;
17727;SDS011;8984;49.268;12.302;2024-02-26T14:12:49;10.13;;;8.13;;
17727;SDS011;8984;49.268;12.302;2024-02-26T14:15:25;10.63;;;7.63;;
17727;SDS011;8984;49.268;12.302;2024-02-26T14:17:55;10.03;;;7.40;;
17727;SDS011;8984;49.268;12.302;2024-02-26T14:20:35;10.07;;;7.63;;
17727;SDS011;8984;49.268;12.302;2024-02-26T14:23:07;9.03;;;7.10;;
17727;SDS011;8984;49.268;12.302;2024-02-26T14:25:38;11.23;;;8.43;;
17727;SDS011;8984;49.268;12.302;2024-02-26T14:28:15;10.03;;;8.00;;
17727;SDS011;8984;49.268;12.302;2024-02-26T14:30:52;12.87;;;9.30;;
17727;SDS011;8984;49.268;12.302;2024-02-26T14:33:31;10.63;;;8.10;;
17727;SDS011;8984;49.268;12.302;2024-02-26T14:36:04;10.13;;;7.83;;
17727;SDS011;8984;49.268;12.302;2024-02-26T14:38:42;10.70;;;8.00;;
17727;SDS011;8984;49.268;12.302;2024-02-26T14:41:22;11.03;;;7.30;;
17727;SDS011;8984;49.268;12.302;2024-02-26T14:43:51;11.30;;;7.87;;
17727;SDS011;8984;49.268;12.302;2024-02-26T14:46:25;12.30;;;8.00;;
17727;SDS011;8984;49.268;12.302;2024-02-26T14:48:53;9.40;;;7.63;;
17727;SDS011;8984;49.268;12.302;2024-02-26T14:51:28;8.80;;;7.67;;
17727;SDS011;8984;49.268;12.302;2024-02-26T14:54:07;9.50;;;8.17;;
17727;SDS011;8984;49.268;12.302;2024-02-26T14:56:41;9.17;;;7.57;;
17727;SDS011;8984;49.268;12.302;2024-02-26T14:59:09;10.93;;;8.23;;
17727;SDS011;8984;49.268;12.302;2024-02-26T15:04:33;10.93;;;8.13;;
17727;SDS011;8984;49.268;12.302;2024-02-26T15:07:00;10.90;;;8.07;;
17727;SDS011;8984;49.268;12.302;2024-02-26T15:09:27;11.93;;;8.63;;
17727;SDS011;8984;49.268;12.302;2024-02-26T15:11:54;10.90;;;8.20;;
17727;SDS011;8984;49.268;12.302;2024-02-26T15:14:22;11.63;;;8.27;;
17727;SDS011;8984;49.268;12.302;2024-02-26T15:16:50;10.10;;;7.37;;
17727;SDS011;8984;49.268;12.302;2024-02-26T15:19:18;10.83;;;8.00;;
17727;SDS011;8984;49.268;12.302;2024-02-26T15:21:46;20.73;;;13.13;;
17727;SDS011;8984;49.268;12.302;2024-02-26T15:24:14;10.73;;;8.43;;